createdAt,value
2018-03-02T14:24:37.155Z,914.3
2018-03-02T15:10:15.046Z,914.7
2018-03-02T15:13:29.328Z,914.8
2018-03-02T15:14:29.241Z,914.9
2018-03-02T15:15:29.130Z,914.7
2018-03-02T15:16:29.027Z,914.7
2018-03-02T15:17:28.927Z,914.7
2018-03-02T15:18:28.830Z,914.8
2018-03-02T15:19:28.714Z,914.7
2018-03-02T15:20:28.650Z,914.8
2018-03-02T15:21:28.559Z,914.7
2018-03-02T15:22:28.435Z,914.8
2018-03-02T15:23:28.839Z,914.8
2018-03-02T15:24:28.749Z,914.9
2018-03-02T15:25:28.647Z,915
2018-03-02T15:26:28.540Z,914.9
2018-03-02T15:27:28.440Z,914.9
2018-03-02T15:28:28.345Z,914.9
2018-03-02T15:29:28.243Z,914.9
2018-03-02T15:30:28.174Z,915
2018-03-02T15:31:28.068Z,915
2018-03-02T15:32:27.969Z,915
2018-03-02T15:33:28.231Z,915.1
2018-03-02T15:34:28.115Z,915
2018-03-02T15:35:28.024Z,915
2018-03-02T15:36:27.927Z,914.9
2018-03-02T15:37:27.832Z,914.9
2018-03-02T15:38:27.777Z,915
2018-03-02T15:39:27.672Z,915
2018-03-02T15:40:27.613Z,915.1
2018-03-02T15:41:27.506Z,915.1
2018-03-02T15:42:27.410Z,915
2018-03-02T15:43:27.681Z,915.2
2018-03-02T15:44:27.567Z,915.1
2018-03-02T15:45:27.478Z,915.1
2018-03-02T15:46:27.397Z,915.2
2018-03-02T15:47:27.315Z,915.3
2018-03-02T15:48:27.237Z,915.1
2018-03-02T15:49:27.574Z,915.3
2018-03-02T15:50:27.500Z,915.2
2018-03-02T15:51:27.388Z,915.2
2018-03-02T15:52:27.289Z,915.2
2018-03-02T15:53:27.569Z,915.2
2018-03-02T15:54:27.472Z,915.3
2018-03-02T15:55:27.364Z,915.5
2018-03-02T15:56:27.266Z,915.4
2018-03-02T15:57:27.208Z,915.3
2018-03-02T15:58:27.134Z,915.4
2018-03-02T15:59:27.016Z,915.5
2018-03-02T16:00:26.918Z,915.4
2018-03-02T16:01:26.832Z,915.3
2018-03-02T16:02:26.754Z,915.4
2018-03-02T16:03:27.027Z,915.4
2018-03-02T16:04:26.950Z,915.4
2018-03-02T16:05:26.869Z,915.4
2018-03-02T16:06:26.987Z,915.3
2018-03-02T16:07:26.884Z,915.4
2018-03-02T16:08:26.818Z,915.4
2018-03-02T16:09:26.733Z,915.5
2018-03-02T16:10:26.647Z,915.4
2018-03-02T16:11:26.540Z,915.5
2018-03-02T16:12:26.444Z,915.5
2018-03-02T16:13:26.757Z,915.6
2018-03-02T16:14:26.693Z,915.4
2018-03-02T16:15:26.599Z,915.5
2018-03-02T16:16:26.520Z,915.4
2018-03-02T16:17:26.417Z,915.4
2018-03-02T16:18:26.346Z,915.4
2018-03-02T16:19:26.227Z,915.5
2018-03-02T16:20:26.139Z,915.5
2018-03-02T16:21:26.042Z,915.3
2018-03-02T16:22:25.952Z,915.3
2018-03-02T16:23:26.287Z,915.4
2018-03-02T16:24:29.174Z,915.5
2018-03-02T16:25:32.470Z,915.4
2018-03-02T16:26:35.796Z,915.4
2018-03-02T16:27:38.896Z,915.5
2018-03-02T16:28:42.381Z,915.5
2018-03-02T16:29:45.392Z,915.5
2018-03-02T16:30:48.502Z,915.7
2018-03-02T16:31:52.898Z,915.6
2018-03-02T16:32:55.425Z,915.5
2018-03-02T16:34:00.814Z,915.6
2018-03-02T16:35:03.374Z,915.5
2018-03-02T16:36:06.036Z,915.6
2018-03-02T16:37:08.720Z,915.6
2018-03-02T16:38:11.410Z,915.7
2018-03-02T16:39:14.084Z,915.7
2018-03-02T16:40:14.163Z,915.7
2018-03-02T16:41:14.080Z,915.7
2018-03-02T16:42:14.011Z,915.8
2018-03-02T16:43:13.899Z,915.8
2018-03-02T16:44:14.193Z,915.9
2018-03-02T16:45:14.105Z,915.8
2018-03-02T16:46:14.031Z,915.9
2018-03-02T16:47:13.925Z,915.8
2018-03-02T16:48:13.832Z,916
2018-03-02T16:49:13.725Z,915.9
2018-03-02T16:50:13.640Z,916
2018-03-02T16:51:13.551Z,916.1
2018-03-02T16:52:13.434Z,916
2018-03-02T16:53:13.340Z,916.1
2018-03-02T16:54:13.619Z,916.1
2018-03-02T16:55:13.550Z,916.1
2018-03-02T16:56:13.460Z,916
2018-03-02T16:57:13.356Z,916.2
2018-03-02T16:58:13.258Z,916.2
2018-03-02T16:59:13.157Z,916.2
2018-03-02T17:00:13.247Z,916.3
2018-03-02T17:01:13.197Z,916.4
2018-03-02T17:02:13.096Z,916.2
2018-03-02T17:03:12.994Z,916.3
2018-03-02T17:04:13.291Z,916.4
2018-03-02T17:05:13.204Z,916.4
2018-03-02T17:06:13.128Z,916.3
2018-03-02T17:07:13.028Z,916.3
2018-03-02T17:08:12.920Z,916.4
2018-03-02T17:09:12.859Z,916.4
2018-03-02T17:10:12.796Z,916.5
2018-03-02T17:11:12.731Z,916.5
2018-03-02T17:12:12.654Z,916.5
2018-03-02T17:13:12.568Z,916.5
2018-03-02T17:14:13.048Z,916.7
2018-03-02T17:15:12.959Z,916.5
2018-03-02T17:16:12.854Z,916.5
2018-03-02T17:17:12.776Z,916.5
2018-03-02T17:18:12.681Z,916.6
2018-03-02T17:19:12.571Z,916.5
2018-03-02T17:20:12.477Z,916.5
2018-03-02T17:21:12.372Z,916.5
2018-03-02T17:22:12.288Z,916.5
2018-03-02T17:23:12.192Z,916.6
2018-03-02T17:24:12.480Z,916.7
2018-03-02T17:25:12.368Z,916.7
2018-03-02T17:26:12.277Z,916.8
2018-03-02T17:27:12.224Z,916.7
2018-03-02T17:28:12.159Z,916.9
2018-03-02T17:29:12.080Z,916.8
2018-03-02T17:30:11.971Z,916.7
2018-03-02T17:31:11.880Z,916.8
2018-03-02T17:32:11.771Z,916.8
2018-03-02T17:33:11.701Z,916.7
2018-03-02T17:34:12.000Z,916.7
2018-03-02T17:35:11.904Z,916.7
2018-03-02T17:36:11.823Z,916.8
2018-03-02T17:37:11.753Z,916.8
2018-03-02T17:38:11.676Z,916.8
2018-03-02T17:39:11.576Z,916.9
2018-03-02T17:40:11.466Z,916.8
2018-03-02T17:41:11.374Z,916.9
2018-03-02T17:42:11.292Z,916.9
2018-03-02T17:43:11.205Z,916.9
2018-03-02T17:44:11.496Z,916.7
2018-03-02T17:45:11.395Z,916.6
2018-03-02T17:46:11.287Z,917
2018-03-02T17:47:11.185Z,917
2018-03-02T17:48:11.091Z,916.9
2018-03-02T17:49:11.021Z,916.9
2018-03-02T17:50:10.917Z,917
2018-03-02T17:51:10.803Z,917
2018-03-02T17:52:10.697Z,917
2018-03-02T17:53:10.589Z,916.9
2018-03-02T17:54:10.882Z,917
2018-03-02T17:55:10.782Z,916.9
2018-03-02T17:56:10.680Z,916.9
2018-03-02T17:57:10.591Z,916.9
2018-03-02T17:58:10.505Z,916.9
2018-03-02T17:59:10.431Z,916.9
2018-03-02T18:00:10.760Z,917
2018-03-02T18:01:10.710Z,917
2018-03-02T18:02:10.624Z,917
2018-03-02T18:03:10.514Z,917
2018-03-02T18:04:10.795Z,917.1
2018-03-02T18:05:10.693Z,917
2018-03-02T18:06:10.589Z,917.1
2018-03-02T18:07:10.489Z,917
2018-03-02T18:08:10.432Z,916.9
2018-03-02T18:09:10.324Z,916.7
2018-03-02T18:10:10.230Z,917.1
2018-03-02T18:11:10.224Z,917.1
2018-03-02T18:12:10.121Z,917.1
2018-03-02T18:13:10.024Z,917.2
2018-03-02T18:14:10.299Z,917
2018-03-02T18:15:10.205Z,917
2018-03-02T18:16:10.098Z,917
2018-03-02T18:17:09.988Z,917.1
2018-03-02T18:18:09.862Z,917
2018-03-02T18:19:09.764Z,917.1
2018-03-02T18:20:09.666Z,917.2
2018-03-02T18:21:09.608Z,917.1
2018-03-02T18:22:09.520Z,917.1
2018-03-02T18:23:09.419Z,917.1
2018-03-02T18:24:09.695Z,917
2018-03-02T18:25:09.577Z,917.1
2018-03-02T18:26:09.505Z,917.2
2018-03-02T18:27:09.423Z,917.2
2018-03-02T18:28:09.346Z,917.2
2018-03-02T18:29:09.230Z,917.1
2018-03-02T18:30:09.130Z,917.1
2018-03-02T18:31:09.014Z,917.3
2018-03-02T18:32:08.917Z,917.3
2018-03-02T18:33:09.168Z,917
2018-03-02T18:34:09.558Z,916.9
2018-03-02T18:35:09.485Z,917.3
2018-03-02T18:36:09.403Z,917.2
2018-03-02T18:37:09.318Z,917.2
2018-03-02T18:38:09.220Z,917.2
2018-03-02T18:39:09.112Z,917.2
2018-03-02T18:40:08.999Z,917.2
2018-03-02T18:41:08.894Z,917.2
2018-03-02T18:42:08.821Z,917.2
2018-03-02T18:43:08.709Z,917.2
2018-03-02T18:44:08.981Z,917.3
2018-03-02T18:45:08.888Z,917.3
2018-03-02T18:46:08.784Z,917.3
2018-03-02T18:47:08.729Z,917.2
2018-03-02T18:48:08.645Z,917.2
2018-03-02T18:49:08.542Z,917.2
2018-03-02T18:50:08.431Z,917.5
2018-03-02T18:51:08.339Z,917.3
2018-03-02T18:52:08.251Z,917.3
2018-03-02T18:53:08.161Z,917.3
2018-03-02T18:54:08.457Z,917.3
2018-03-02T18:55:08.359Z,917.5
2018-03-02T18:56:08.241Z,917.3
2018-03-02T18:57:08.134Z,917.3
2018-03-02T18:58:08.067Z,917.5
2018-03-02T18:59:07.975Z,917.5
2018-03-02T19:00:07.892Z,917.3
2018-03-02T19:01:07.819Z,917.4
2018-03-02T19:02:07.741Z,917.3
2018-03-02T19:03:07.659Z,917.4
2018-03-02T19:04:08.012Z,917.4
2018-03-02T19:05:07.920Z,917.4
2018-03-02T19:06:07.836Z,917.3
2018-03-02T19:07:07.748Z,917.4
2018-03-02T19:08:07.655Z,917.4
2018-03-02T19:09:07.635Z,917.5
2018-03-02T19:10:07.530Z,917.4
2018-03-02T19:11:07.446Z,917.4
2018-03-02T19:12:07.340Z,917.5
2018-03-02T19:13:07.244Z,917.5
2018-03-02T19:14:07.770Z,917.4
2018-03-02T19:15:07.694Z,917.4
2018-03-02T19:16:07.594Z,917.5
2018-03-02T19:17:07.500Z,917.3
2018-03-02T19:18:07.398Z,917.4
2018-03-02T19:19:07.308Z,917.4
2018-03-02T19:20:07.213Z,917.4
2018-03-02T19:21:07.126Z,917.3
2018-03-02T19:22:07.047Z,917.4
2018-03-02T19:23:06.943Z,917.4
2018-03-02T19:24:07.276Z,917.5
2018-03-02T19:25:07.240Z,917.5
2018-03-02T19:26:07.203Z,917.5
2018-03-02T19:27:07.158Z,917.4
2018-03-02T19:28:07.084Z,917.5
2018-03-02T19:29:07.000Z,917.5
2018-03-02T19:30:06.940Z,917.6
2018-03-02T19:31:06.878Z,917.4
2018-03-02T19:32:06.812Z,917.4
2018-03-02T19:33:06.778Z,917.5
2018-03-02T19:34:07.337Z,917.5
2018-03-02T19:35:07.289Z,917.5
2018-03-02T19:36:07.247Z,917.4
2018-03-02T19:37:07.143Z,917.4
2018-03-02T19:38:07.195Z,917.5
2018-03-02T19:39:07.205Z,917.5
2018-03-02T19:40:07.099Z,917.4
2018-03-02T19:41:07.337Z,917.4
2018-03-02T19:42:07.325Z,917.5
2018-03-02T19:43:07.346Z,917.4
2018-03-02T19:44:07.884Z,917.3
2018-03-02T19:45:07.867Z,917.3
2018-03-02T19:46:07.831Z,917.3
2018-03-02T19:47:07.833Z,917.4
2018-03-02T19:48:07.745Z,917.3
2018-03-02T19:49:07.663Z,917.3
2018-03-02T19:50:07.578Z,917.4
2018-03-02T19:51:07.510Z,917.4
2018-03-02T19:52:07.470Z,917.5
2018-03-02T19:53:07.409Z,917.3
2018-03-02T19:54:07.883Z,917.4
2018-03-02T19:55:07.879Z,917.4
2018-03-02T19:56:07.860Z,917.5
2018-03-02T19:57:07.861Z,917.5
2018-03-02T19:58:07.796Z,917.5
2018-03-02T19:59:07.827Z,917.4
2018-03-02T20:00:07.833Z,917.5
2018-03-02T20:01:07.754Z,917.4
2018-03-02T20:02:07.761Z,917.4
2018-03-02T20:03:07.682Z,917.3
2018-03-02T20:04:08.122Z,917.3
2018-03-02T20:05:08.047Z,917.4
2018-03-02T20:06:07.960Z,917.4
2018-03-02T20:07:07.881Z,917.3
2018-03-02T20:08:07.833Z,917.2
2018-03-02T20:09:07.746Z,917.3
2018-03-02T20:10:07.642Z,917.3
2018-03-02T20:11:07.566Z,917.4
2018-03-02T20:12:07.503Z,917.3
2018-03-02T20:13:07.444Z,917.4
2018-03-02T20:14:07.812Z,917.4
2018-03-02T20:15:07.776Z,917.4
2018-03-02T20:16:07.755Z,917.3
2018-03-02T20:17:07.664Z,917.3
2018-03-02T20:18:07.567Z,917.4
2018-03-02T20:19:07.479Z,917.2
2018-03-02T20:20:07.390Z,917.3
2018-03-02T20:21:07.378Z,917.4
2018-03-02T20:22:07.344Z,917.3
2018-03-02T20:23:07.444Z,917.3
2018-03-02T20:24:07.749Z,917.3
2018-03-02T20:25:07.668Z,917.4
2018-03-02T20:26:07.584Z,917.3
2018-03-02T20:27:07.494Z,917.3
2018-03-02T20:28:07.394Z,917.3
2018-03-02T20:29:07.298Z,917.3
2018-03-02T20:30:07.214Z,917.2
2018-03-02T20:31:07.114Z,917.3
2018-03-02T20:32:07.016Z,917.3
2018-03-02T20:33:06.924Z,917.2
2018-03-02T20:34:07.214Z,917.2
2018-03-02T20:35:07.114Z,917.3
2018-03-02T20:36:06.988Z,917.3
2018-03-02T20:37:06.886Z,917.3
2018-03-02T20:38:06.863Z,917.3
2018-03-02T20:39:06.803Z,917.3
2018-03-02T20:40:06.715Z,917.2
2018-03-02T20:41:06.609Z,917.2
2018-03-02T20:42:06.773Z,917.3
2018-03-02T20:43:06.672Z,917.3
2018-03-02T20:44:07.003Z,917.5
2018-03-02T20:45:06.896Z,917.3
2018-03-02T20:46:06.787Z,917.4
2018-03-02T20:47:06.681Z,917.3
2018-03-02T20:48:06.582Z,917.3
2018-03-02T20:49:06.502Z,917.3
2018-03-02T20:50:06.399Z,917.3
2018-03-02T20:51:06.315Z,917.3
2018-03-02T20:52:06.209Z,917.3
2018-03-02T20:53:06.097Z,917.3
2018-03-02T20:54:06.392Z,917.3
2018-03-02T20:55:06.303Z,917.3
2018-03-02T20:56:06.205Z,917.3
2018-03-02T20:57:06.116Z,917.3
2018-03-02T20:58:05.989Z,917.1
2018-03-02T20:59:05.893Z,917.2
2018-03-02T21:00:05.799Z,917.2
2018-03-02T21:01:05.728Z,917.3
2018-03-02T21:02:05.616Z,917.3
2018-03-02T21:03:05.509Z,917.3
2018-03-02T21:04:05.812Z,917.4
2018-03-02T21:05:05.718Z,917.4
2018-03-02T21:06:05.619Z,917.4
2018-03-02T21:07:05.517Z,917.5
2018-03-02T21:08:05.411Z,917.3
2018-03-02T21:09:05.319Z,917.4
2018-03-02T21:10:05.230Z,917.5
2018-03-02T21:11:05.137Z,917.5
2018-03-02T21:12:05.075Z,917.3
2018-03-02T21:13:04.981Z,917.3
2018-03-02T21:14:05.312Z,917.4
2018-03-02T21:15:05.254Z,917.4
2018-03-02T21:16:05.148Z,917.3
2018-03-02T21:17:05.032Z,917.4
2018-03-02T21:18:04.931Z,917.4
2018-03-02T21:19:04.824Z,917.3
2018-03-02T21:20:04.747Z,917.4
2018-03-02T21:21:04.634Z,917.4
2018-03-02T21:22:04.527Z,917.4
2018-03-02T21:23:04.628Z,917.4
2018-03-02T21:24:04.898Z,917.5
2018-03-02T21:25:04.793Z,917.3
2018-03-02T21:26:04.714Z,917.5
2018-03-02T21:27:04.624Z,917.5
2018-03-02T21:28:04.843Z,917.4
2018-03-02T21:29:04.743Z,917.6
2018-03-02T21:30:04.655Z,917.2
2018-03-02T21:31:04.547Z,917.6
2018-03-02T21:32:04.471Z,917.4
2018-03-02T21:33:04.355Z,917.5
2018-03-02T21:34:04.620Z,917.4
2018-03-02T21:35:04.518Z,917.3
2018-03-02T21:36:04.409Z,917.4
2018-03-02T21:37:04.307Z,917.4
2018-03-02T21:38:04.198Z,917.5
2018-03-02T21:39:04.083Z,917.6
2018-03-02T21:40:03.975Z,917.5
2018-03-02T21:41:03.864Z,917.6
2018-03-02T21:42:03.806Z,917.6
2018-03-02T21:43:03.677Z,917.4
2018-03-02T21:44:03.954Z,917.5
2018-03-02T21:45:03.865Z,917.5
2018-03-02T21:46:03.766Z,917.4
2018-03-02T21:47:03.659Z,917.4
2018-03-02T21:48:03.632Z,917.6
2018-03-02T21:49:03.534Z,917.6
2018-03-02T21:50:03.439Z,917.6
2018-03-02T21:51:03.349Z,917.6
2018-03-02T21:52:03.258Z,917.5
2018-03-02T21:53:03.214Z,917.5
2018-03-02T21:54:03.539Z,917.5
2018-03-02T21:55:03.488Z,917.5
2018-03-02T21:56:03.381Z,917.4
2018-03-02T21:57:03.281Z,917.7
2018-03-02T21:58:03.168Z,917.5
2018-03-02T21:59:03.082Z,917.5
2018-03-02T22:00:02.972Z,917.4
2018-03-02T22:01:02.871Z,917.4
2018-03-02T22:02:02.752Z,917.4
2018-03-02T22:03:02.653Z,917.4
2018-03-02T22:04:02.937Z,917.5
2018-03-02T22:05:02.885Z,917.4
2018-03-02T22:06:02.788Z,917.4
2018-03-02T22:07:02.685Z,917.4
2018-03-02T22:08:02.596Z,917.5
2018-03-02T22:09:02.485Z,917.5
2018-03-02T22:10:02.416Z,917.4
2018-03-02T22:11:02.330Z,917.4
2018-03-02T22:12:02.233Z,917.4
2018-03-02T22:13:02.115Z,917.4
2018-03-02T22:14:02.375Z,917.5
2018-03-02T22:15:02.282Z,917.5
2018-03-02T22:16:02.189Z,917.5
2018-03-02T22:17:02.359Z,917.5
2018-03-02T22:18:02.253Z,917.5
2018-03-02T22:19:02.158Z,917.5
2018-03-02T22:20:02.079Z,917.5
2018-03-02T22:21:01.986Z,917.5
2018-03-02T22:22:01.902Z,917.6
2018-03-02T22:23:01.797Z,917.5
2018-03-02T22:24:02.077Z,917.4
2018-03-02T22:25:01.960Z,917.5
2018-03-02T22:26:01.865Z,917.5
2018-03-02T22:27:01.774Z,917.5
2018-03-02T22:28:01.674Z,917.5
2018-03-02T22:29:01.559Z,917.5
2018-03-02T22:30:01.455Z,917.4
2018-03-02T22:31:01.353Z,917.3
2018-03-02T22:32:01.263Z,917.4
2018-03-02T22:33:01.153Z,917.6
2018-03-02T22:34:01.433Z,917.4
2018-03-02T22:35:01.325Z,917.5
2018-03-02T22:36:01.210Z,917.4
2018-03-02T22:37:01.375Z,917.6
2018-03-02T22:38:01.249Z,917.6
2018-03-02T22:39:01.144Z,917.5
2018-03-02T22:40:01.030Z,917.4
2018-03-02T22:41:00.917Z,917.5
2018-03-02T22:42:00.817Z,917.4
2018-03-02T22:43:00.740Z,917.4
2018-03-02T22:44:01.076Z,917.5
2018-03-02T22:45:01.023Z,917.6
2018-03-02T22:46:00.923Z,917.5
2018-03-02T22:47:00.874Z,917.4
2018-03-02T22:48:00.806Z,917.3
2018-03-02T22:49:00.708Z,917.5
2018-03-02T22:50:00.585Z,917.4
2018-03-02T22:51:00.479Z,917.5
2018-03-02T22:52:00.409Z,917.4
2018-03-02T22:53:00.333Z,917.4
2018-03-02T22:54:00.610Z,917.4
2018-03-02T22:55:00.512Z,917.4
2018-03-02T22:56:00.433Z,917.4
2018-03-02T22:57:00.381Z,917.6
2018-03-02T22:58:00.276Z,917.5
2018-03-02T22:59:00.237Z,917.5
2018-03-02T23:00:00.116Z,917.4
2018-03-02T23:01:00.019Z,917.1
2018-03-02T23:01:59.919Z,917.5
2018-03-02T23:02:59.826Z,917.3
2018-03-02T23:04:00.145Z,917.5
2018-03-02T23:05:00.038Z,917.6
2018-03-02T23:05:59.914Z,917.5
2018-03-02T23:06:59.889Z,917.4
2018-03-02T23:07:59.782Z,917.5
2018-03-02T23:08:59.699Z,917.4
2018-03-02T23:09:59.575Z,917.5
2018-03-02T23:10:59.505Z,917.5
2018-03-02T23:11:59.405Z,917.4
2018-03-02T23:12:59.305Z,917.4
2018-03-02T23:13:59.601Z,917.4
2018-03-02T23:14:59.495Z,917.5
2018-03-02T23:15:59.392Z,917.5
2018-03-02T23:16:59.299Z,917.4
2018-03-02T23:17:59.244Z,917.5
2018-03-02T23:18:59.143Z,917.6
2018-03-02T23:19:59.035Z,917.6
2018-03-02T23:20:59.036Z,917.5
2018-03-02T23:21:58.904Z,917.7
2018-03-02T23:22:58.863Z,917.6
2018-03-02T23:23:59.160Z,917.7
2018-03-02T23:24:59.063Z,917.7
2018-03-02T23:25:58.937Z,917.8
2018-03-02T23:26:58.821Z,917.7
2018-03-02T23:27:58.743Z,917.8
2018-03-02T23:28:58.631Z,917.7
2018-03-02T23:29:58.540Z,917.7
2018-03-02T23:30:58.449Z,917.8
2018-03-02T23:31:58.332Z,917.7
2018-03-02T23:32:58.223Z,917.7
2018-03-02T23:33:58.490Z,917.7
2018-03-02T23:34:58.377Z,917.9
2018-03-02T23:35:58.292Z,917.7
2018-03-02T23:36:58.186Z,918
2018-03-02T23:37:58.060Z,917.8
2018-03-02T23:38:57.954Z,917.8
2018-03-02T23:39:57.837Z,917.8
2018-03-02T23:40:57.744Z,917.7
2018-03-02T23:41:57.638Z,917.7
2018-03-02T23:42:57.526Z,917.8
2018-03-02T23:43:57.799Z,917.7
2018-03-02T23:44:57.668Z,917.7
2018-03-02T23:45:57.553Z,917.7
2018-03-02T23:46:57.448Z,917.7
2018-03-02T23:47:57.359Z,917.6
2018-03-02T23:48:57.245Z,917.8
2018-03-02T23:49:57.171Z,917.8
2018-03-02T23:50:57.069Z,917.7
2018-03-02T23:51:56.981Z,917.8
2018-03-02T23:52:56.858Z,918
2018-03-02T23:53:57.109Z,917.9
2018-03-02T23:54:57.017Z,917.9
2018-03-02T23:55:56.898Z,918
2018-03-02T23:56:56.814Z,917.9
2018-03-02T23:57:56.743Z,917.9
2018-03-02T23:58:56.619Z,918
2018-03-02T23:59:56.485Z,918.1
